Nearby METAR Reports

 

KSJC - San Jose, California, USA
Distance from station: NE 14km
Updated: 23/02/2019 20:53
Partly cloudy
Partly cloudy
 Wind from NW
Wind: NW 6 km/h
Temperature: 9°C
Dew Point: 5°C
Humidity: 76%
Barometer: 1026.1 hPa
Clouds: Partly cloudy
Visibility: 16 km
Cloud details: Few Clouds 1676 m
Partly cloudy 4877 m
2019/02/24 04:53 KSJC 240453Z 32003KT 10SM FEW055 SCT160 09/05 A3030 RMK AO2 SLP261 T00940050 $
KNUQ - Moffett Nas/Mtn, California, USA
Distance from station: N 14km
Updated: 23/02/2019 20:56
Clear
Clear
 Wind from calm
Wind: Calm
Temperature: 10°C
Dew Point: 6°C
Humidity: 76%
Barometer: 1026.4 hPa
Clouds: Clear
Visibility: 16 km
2019/02/24 04:56 KNUQ 240456Z 00000KT 10SM CLR 10/06 A3031 RMK AO2 SLP267 T01000056 $
 
KPAO - Palo Alto, California, USA
Distance from station: NNW 23km
Updated: 23/02/2019 20:47
Partly cloudy
Partly cloudy
 Wind from calm
Wind: Calm
Barometer: 1026.8 hPa
Clouds: Partly cloudy
Visibility: 16 km
Cloud details: Partly cloudy 3658 m
2019/02/24 04:47 KPAO 240447Z 00000KT 10SM SCT120 A3032 RMK LAST OBSERVATION WIND ESTIMATED
KRHV - San Jose/Reid, California, USA
Distance from station: ENE 19km
Updated: 23/02/2019 20:47
Mostly cloudy
Mostly cloudy
 Wind from varies
Wind: varies 9 km/h
Temperature: 10°C
Wind Chill: 9°C
Dew Point: 5°C
Humidity: 71%
Barometer: 1025.7 hPa
Clouds: Mostly cloudy
Visibility: 16 km
Cloud details: Mostly cloudy 3658 m
2019/02/24 04:47 KRHV 240447Z VRB05KT 10SM BKN120 10/05 A3029
 
KOAK - Oakland, California, USA
Distance from station: NNW 50km
Updated: 23/02/2019 20:53
Mostly cloudy
Mostly cloudy
 Wind from W
Wind: W 9 km/h
Temperature: 10°C
Wind Chill: 9°C
Dew Point: 6°C
Humidity: 76%
Barometer: 1026.4 hPa
Clouds: Mostly cloudy
Visibility: 16 km
Cloud details: Few Clouds 3658 m
Partly cloudy 4267 m
Mostly cloudy 5182 m
2019/02/24 04:53 KOAK 240453Z 28005KT 10SM FEW120 SCT140 BKN170 10/06 A3031 RMK AO2 SLP263 T01000061
KSQL - San Carlos Airpo, California, USA
Distance from station: NW 34km
Updated: 23/02/2019 20:47
Few Clouds
Few Clouds
 Wind from varies
Wind: varies 6 km/h
Temperature: 10°C
Dew Point: 5°C
Humidity: 71%
Barometer: 1026.4 hPa
Clouds: Few Clouds
Visibility: 16 km
Cloud details: Few Clouds 914 m
2019/02/24 04:47 KSQL 240447Z VRB03KT 10SM FEW030 10/05 A3031 RMK LAST
 
KSFO - San Francisco, California, USA
Distance from station: NW 49km
Updated: 23/02/2019 20:56
Few Clouds
Few Clouds
 Wind from W
Wind: W 9 km/h
Temperature: 10°C
Wind Chill: 9°C
Dew Point: 5°C
Humidity: 71%
Barometer: 1026.4 hPa
Clouds: Few Clouds
Visibility: 16 km
Cloud details: Few Clouds 457 m
Few Clouds 4572 m
2019/02/24 04:56 KSFO 240456Z 26005KT 10SM FEW015 FEW150 10/05 A3031 RMK AO2 SLP262 T01000050
KE16 - San Martin, California, USA
Distance from station: ESE 43km
Updated: 23/02/2019 20:55
Few Clouds
Few Clouds
 Wind from calm
Wind: Calm
Temperature: 8°C
Dew Point: 4°C
Humidity: 76%
Barometer: 1026.8 hPa
Clouds: Few Clouds
Visibility: 16 km
Cloud details: Few Clouds 884 m
Few Clouds 1158 m
2019/02/24 04:55 KE16 240455Z AUTO 00000KT 10SM FEW029 FEW038 08/04 A3032 RMK AO2
 
KWVI - Watsonville, California, USA
Distance from station: SSE 44km
Updated: 23/02/2019 20:53
Clear
Clear
 Wind from NNW
Wind: NNW 6 km/h
Temperature: 7°C
Dew Point: 4°C
Humidity: 81%
Barometer: 1026.4 hPa
Clouds: Clear
Visibility: 16 km
2019/02/24 04:53 KWVI 240453Z AUTO 34003KT 10SM CLR 07/04 A3031 RMK AO2 SLP266 T00720044
KHAF - Half Moon Bay, California, USA
Distance from station: WNW 50km
Updated: 13/02/2019 14:15
NOT Current
Light rain, Overcast
Light rain, Overcast
 Wind from S
Wind: S 54 km/h, Gust: 69 km/h
Temperature: 13°C
Dew Point: 12°C
Humidity: 94%
Barometer: 1000.3 hPa
Summary: Light rain
Clouds: Overcast
Visibility: 1.2 km
Cloud details: Overcast 213 m
2019/02/13 22:15 KHAF 132215Z AUTO 17029G37KT 3/4SM -RA OVC007 13/12 A2954 RMK AO2
 
KHWD - Hayward, California, USA
Distance from station: N 44km
Updated: 23/02/2019 20:54
Clear
Clear
 Wind from calm
Wind: Calm
Temperature: 11°C
Dew Point: 5°C
Humidity: 67%
Barometer: 1026.1 hPa
Clouds: Clear
Visibility: 16 km
2019/02/24 04:54 KHWD 240454Z 00000KT 10SM CLR 11/05 A3030 RMK AO2 SLP272 T01060050
KLVK - Livermore, California, USA
Distance from station: NNE 51km
Updated: 23/02/2019 20:53
Clear
Clear
 Wind from WNW
Wind: WNW 7 km/h
Temperature: 8°C
Wind Chill: 7°C
Dew Point: 3°C
Humidity: 71%
Barometer: 1025.7 hPa
Clouds: Clear
Visibility: 16 km
2019/02/24 04:53 KLVK 240453Z 30004KT 10SM CLR 08/03 A3029 RMK AO2 SLP258 T00780033